sensor_id;sensor_type;location;lat;lon;timestamp;P1;durP1;ratioP1;P2;durP2;ratioP2
6626;SDS011;3349;49.830;8.748;2022-10-16T00:00:30;3.17;;;1.90;;
6626;SDS011;3349;49.830;8.748;2022-10-16T00:02:57;2.70;;;2.00;;
6626;SDS011;3349;49.830;8.748;2022-10-16T00:05:24;1.90;;;1.70;;
6626;SDS011;3349;49.830;8.748;2022-10-16T00:07:50;2.25;;;1.73;;
6626;SDS011;3349;49.830;8.748;2022-10-16T00:10:17;1.90;;;1.80;;
6626;SDS011;3349;49.830;8.748;2022-10-16T00:12:44;1.60;;;1.50;;
6626;SDS011;3349;49.830;8.748;2022-10-16T00:15:12;3.28;;;1.70;;
6626;SDS011;3349;49.830;8.748;2022-10-16T00:17:38;1.77;;;1.27;;
6626;SDS011;3349;49.830;8.748;2022-10-16T00:20:05;1.50;;;1.40;;
6626;SDS011;3349;49.830;8.748;2022-10-16T00:22:33;2.60;;;1.48;;
6626;SDS011;3349;49.830;8.748;2022-10-16T00:24:59;1.58;;;1.48;;
6626;SDS011;3349;49.830;8.748;2022-10-16T00:27:26;2.03;;;1.73;;
6626;SDS011;3349;49.830;8.748;2022-10-16T00:29:53;1.60;;;1.50;;
6626;SDS011;3349;49.830;8.748;2022-10-16T00:32:21;4.25;;;1.55;;
6626;SDS011;3349;49.830;8.748;2022-10-16T00:34:47;1.67;;;1.50;;
6626;SDS011;3349;49.830;8.748;2022-10-16T00:37:14;1.73;;;1.60;;
6626;SDS011;3349;49.830;8.748;2022-10-16T00:39:41;1.52;;;1.42;;
6626;SDS011;3349;49.830;8.748;2022-10-16T00:42:09;1.60;;;1.50;;
6626;SDS011;3349;49.830;8.748;2022-10-16T00:44:42;2.25;;;1.85;;
6626;SDS011;3349;49.830;8.748;2022-10-16T00:47:11;3.88;;;2.13;;
6626;SDS011;3349;49.830;8.748;2022-10-16T00:49:43;3.28;;;1.80;;
6626;SDS011;3349;49.830;8.748;2022-10-16T00:52:09;2.42;;;1.55;;
6626;SDS011;3349;49.830;8.748;2022-10-16T00:54:37;1.75;;;1.60;;
6626;SDS011;3349;49.830;8.748;2022-10-16T00:57:04;2.67;;;1.50;;
6626;SDS011;3349;49.830;8.748;2022-10-16T00:59:33;2.33;;;1.35;;
6626;SDS011;3349;49.830;8.748;2022-10-16T01:02:02;1.42;;;1.27;;
6626;SDS011;3349;49.830;8.748;2022-10-16T01:04:31;1.33;;;1.17;;
6626;SDS011;3349;49.830;8.748;2022-10-16T01:07:04;1.35;;;1.17;;
6626;SDS011;3349;49.830;8.748;2022-10-16T01:09:37;2.92;;;1.30;;
6626;SDS011;3349;49.830;8.748;2022-10-16T01:12:14;5.75;;;1.52;;
6626;SDS011;3349;49.830;8.748;2022-10-16T01:14:47;1.88;;;1.55;;
6626;SDS011;3349;49.830;8.748;2022-10-16T01:17:20;2.78;;;1.25;;
6626;SDS011;3349;49.830;8.748;2022-10-16T01:19:58;1.33;;;1.15;;
6626;SDS011;3349;49.830;8.748;2022-10-16T01:22:36;1.65;;;1.10;;
6626;SDS011;3349;49.830;8.748;2022-10-16T01:25:16;3.05;;;1.40;;
6626;SDS011;3349;49.830;8.748;2022-10-16T01:27:50;2.65;;;1.17;;
6626;SDS011;3349;49.830;8.748;2022-10-16T01:30:18;2.42;;;1.30;;
6626;SDS011;3349;49.830;8.748;2022-10-16T01:32:49;2.90;;;1.33;;
6626;SDS011;3349;49.830;8.748;2022-10-16T01:35:21;2.28;;;1.40;;
6626;SDS011;3349;49.830;8.748;2022-10-16T01:37:53;3.15;;;1.40;;
6626;SDS011;3349;49.830;8.748;2022-10-16T01:40:25;3.55;;;1.52;;
6626;SDS011;3349;49.830;8.748;2022-10-16T01:42:56;2.20;;;1.75;;
6626;SDS011;3349;49.830;8.748;2022-10-16T01:45:26;1.60;;;1.50;;
6626;SDS011;3349;49.830;8.748;2022-10-16T01:47:56;1.70;;;1.60;;
6626;SDS011;3349;49.830;8.748;2022-10-16T01:50:25;1.52;;;1.30;;
6626;SDS011;3349;49.830;8.748;2022-10-16T01:52:53;1.55;;;1.10;;
6626;SDS011;3349;49.830;8.748;2022-10-16T01:55:24;1.42;;;1.33;;
6626;SDS011;3349;49.830;8.748;2022-10-16T01:57:56;6.15;;;1.20;;
6626;SDS011;3349;49.830;8.748;2022-10-16T02:00:25;1.85;;;1.20;;
6626;SDS011;3349;49.830;8.748;2022-10-16T02:02:53;1.65;;;1.48;;
6626;SDS011;3349;49.830;8.748;2022-10-16T02:05:24;1.23;;;1.00;;
6626;SDS011;3349;49.830;8.748;2022-10-16T02:07:54;3.13;;;1.30;;
6626;SDS011;3349;49.830;8.748;2022-10-16T02:10:21;2.65;;;1.50;;
6626;SDS011;3349;49.830;8.748;2022-10-16T02:12:50;2.95;;;1.40;;
6626;SDS011;3349;49.830;8.748;2022-10-16T02:15:24;2.50;;;1.48;;
6626;SDS011;3349;49.830;8.748;2022-10-16T02:17:51;1.80;;;1.60;;
6626;SDS011;3349;49.830;8.748;2022-10-16T02:20:18;3.72;;;1.80;;
6626;SDS011;3349;49.830;8.748;2022-10-16T02:22:48;1.90;;;1.80;;
6626;SDS011;3349;49.830;8.748;2022-10-16T02:25:19;2.78;;;1.98;;
6626;SDS011;3349;49.830;8.748;2022-10-16T02:27:51;2.53;;;2.03;;
6626;SDS011;3349;49.830;8.748;2022-10-16T02:30:24;3.10;;;1.75;;
6626;SDS011;3349;49.830;8.748;2022-10-16T02:32:55;2.05;;;1.95;;
6626;SDS011;3349;49.830;8.748;2022-10-16T02:35:25;3.17;;;2.10;;
6626;SDS011;3349;49.830;8.748;2022-10-16T02:37:53;3.95;;;2.25;;
6626;SDS011;3349;49.830;8.748;2022-10-16T02:40:20;3.38;;;2.33;;
6626;SDS011;3349;49.830;8.748;2022-10-16T02:42:49;2.28;;;2.00;;
6626;SDS011;3349;49.830;8.748;2022-10-16T02:45:18;3.72;;;2.47;;
6626;SDS011;3349;49.830;8.748;2022-10-16T02:47:46;3.63;;;2.38;;
6626;SDS011;3349;49.830;8.748;2022-10-16T02:50:13;4.07;;;2.53;;
6626;SDS011;3349;49.830;8.748;2022-10-16T02:52:39;4.45;;;2.80;;
6626;SDS011;3349;49.830;8.748;2022-10-16T02:55:07;10.68;;;2.90;;
6626;SDS011;3349;49.830;8.748;2022-10-16T02:57:34;3.15;;;2.78;;
6626;SDS011;3349;49.830;8.748;2022-10-16T03:00:02;2.92;;;2.72;;
6626;SDS011;3349;49.830;8.748;2022-10-16T03:02:29;3.22;;;3.00;;
6626;SDS011;3349;49.830;8.748;2022-10-16T03:04:57;4.18;;;3.78;;
6626;SDS011;3349;49.830;8.748;2022-10-16T03:07:23;3.40;;;3.08;;
6626;SDS011;3349;49.830;8.748;2022-10-16T03:09:50;3.90;;;3.60;;
6626;SDS011;3349;49.830;8.748;2022-10-16T03:12:17;3.88;;;3.47;;
6626;SDS011;3349;49.830;8.748;2022-10-16T03:14:44;3.92;;;3.63;;
6626;SDS011;3349;49.830;8.748;2022-10-16T03:17:11;6.35;;;4.20;;
6626;SDS011;3349;49.830;8.748;2022-10-16T03:19:38;4.80;;;4.40;;
6626;SDS011;3349;49.830;8.748;2022-10-16T03:22:06;4.82;;;4.30;;
6626;SDS011;3349;49.830;8.748;2022-10-16T03:24:33;4.93;;;3.53;;
6626;SDS011;3349;49.830;8.748;2022-10-16T03:27:00;4.75;;;3.90;;
6626;SDS011;3349;49.830;8.748;2022-10-16T03:29:27;4.93;;;4.53;;
6626;SDS011;3349;49.830;8.748;2022-10-16T03:31:54;5.07;;;4.25;;
6626;SDS011;3349;49.830;8.748;2022-10-16T03:34:21;6.03;;;4.75;;
6626;SDS011;3349;49.830;8.748;2022-10-16T03:36:48;5.00;;;4.53;;
6626;SDS011;3349;49.830;8.748;2022-10-16T03:39:16;5.80;;;4.80;;
6626;SDS011;3349;49.830;8.748;2022-10-16T03:41:42;5.20;;;4.80;;
6626;SDS011;3349;49.830;8.748;2022-10-16T03:44:11;5.70;;;4.70;;
6626;SDS011;3349;49.830;8.748;2022-10-16T03:46:38;5.70;;;5.10;;
6626;SDS011;3349;49.830;8.748;2022-10-16T03:49:05;6.43;;;5.05;;
6626;SDS011;3349;49.830;8.748;2022-10-16T03:51:31;5.47;;;4.97;;
6626;SDS011;3349;49.830;8.748;2022-10-16T03:53:58;6.35;;;5.32;;
6626;SDS011;3349;49.830;8.748;2022-10-16T03:56:26;8.18;;;5.68;;
6626;SDS011;3349;49.830;8.748;2022-10-16T03:58:53;6.90;;;5.68;;
6626;SDS011;3349;49.830;8.748;2022-10-16T04:01:20;7.03;;;5.75;;
6626;SDS011;3349;49.830;8.748;2022-10-16T04:03:46;7.88;;;5.78;;
6626;SDS011;3349;49.830;8.748;2022-10-16T04:06:13;8.93;;;5.88;;
6626;SDS011;3349;49.830;8.748;2022-10-16T04:08:41;5.93;;;5.38;;
6626;SDS011;3349;49.830;8.748;2022-10-16T04:11:08;6.10;;;5.50;;
6626;SDS011;3349;49.830;8.748;2022-10-16T04:13:36;5.60;;;5.10;;
6626;SDS011;3349;49.830;8.748;2022-10-16T04:16:03;7.20;;;5.53;;
6626;SDS011;3349;49.830;8.748;2022-10-16T04:18:30;8.18;;;5.65;;
6626;SDS011;3349;49.830;8.748;2022-10-16T04:20:57;8.57;;;5.82;;
6626;SDS011;3349;49.830;8.748;2022-10-16T04:23:29;7.50;;;6.68;;
6626;SDS011;3349;49.830;8.748;2022-10-16T04:25:55;6.88;;;6.18;;
6626;SDS011;3349;49.830;8.748;2022-10-16T04:28:22;8.07;;;6.20;;
6626;SDS011;3349;49.830;8.748;2022-10-16T04:30:50;7.45;;;6.60;;
6626;SDS011;3349;49.830;8.748;2022-10-16T04:33:18;5.90;;;5.40;;
6626;SDS011;3349;49.830;8.748;2022-10-16T04:35:44;6.63;;;5.60;;
6626;SDS011;3349;49.830;8.748;2022-10-16T04:38:11;6.07;;;5.53;;
6626;SDS011;3349;49.830;8.748;2022-10-16T04:40:38;8.40;;;6.03;;
6626;SDS011;3349;49.830;8.748;2022-10-16T04:43:04;7.38;;;6.68;;
6626;SDS011;3349;49.830;8.748;2022-10-16T04:45:32;6.28;;;5.68;;
6626;SDS011;3349;49.830;8.748;2022-10-16T04:48:00;6.30;;;5.70;;
6626;SDS011;3349;49.830;8.748;2022-10-16T04:50:27;7.50;;;5.05;;
6626;SDS011;3349;49.830;8.748;2022-10-16T04:52:54;5.75;;;5.15;;
6626;SDS011;3349;49.830;8.748;2022-10-16T04:55:20;5.40;;;4.90;;
6626;SDS011;3349;49.830;8.748;2022-10-16T04:57:47;6.18;;;5.45;;
6626;SDS011;3349;49.830;8.748;2022-10-16T05:00:14;8.63;;;5.05;;
6626;SDS011;3349;49.830;8.748;2022-10-16T05:02:41;6.07;;;4.93;;
6626;SDS011;3349;49.830;8.748;2022-10-16T05:05:09;6.22;;;5.22;;
6626;SDS011;3349;49.830;8.748;2022-10-16T05:07:36;5.85;;;5.35;;
6626;SDS011;3349;49.830;8.748;2022-10-16T05:10:03;5.78;;;5.20;;
6626;SDS011;3349;49.830;8.748;2022-10-16T05:12:31;8.98;;;5.38;;
6626;SDS011;3349;49.830;8.748;2022-10-16T05:14:58;5.88;;;5.05;;
6626;SDS011;3349;49.830;8.748;2022-10-16T05:17:24;8.10;;;4.95;;
6626;SDS011;3349;49.830;8.748;2022-10-16T05:19:51;6.75;;;5.38;;
6626;SDS011;3349;49.830;8.748;2022-10-16T05:22:20;8.00;;;4.97;;
6626;SDS011;3349;49.830;8.748;2022-10-16T05:24:47;5.97;;;4.63;;
6626;SDS011;3349;49.830;8.748;2022-10-16T05:27:14;7.28;;;5.05;;
6626;SDS011;3349;49.830;8.748;2022-10-16T05:29:44;6.55;;;4.30;;
6626;SDS011;3349;49.830;8.748;2022-10-16T05:32:11;4.68;;;3.92;;
6626;SDS011;3349;49.830;8.748;2022-10-16T05:34:38;8.23;;;3.65;;
6626;SDS011;3349;49.830;8.748;2022-10-16T05:37:04;5.60;;;4.00;;
6626;SDS011;3349;49.830;8.748;2022-10-16T05:39:33;4.85;;;3.38;;
6626;SDS011;3349;49.830;8.748;2022-10-16T05:41:59;4.30;;;3.50;;
6626;SDS011;3349;49.830;8.748;2022-10-16T05:44:26;4.88;;;3.33;;
6626;SDS011;3349;49.830;8.748;2022-10-16T05:46:53;4.93;;;3.65;;
6626;SDS011;3349;49.830;8.748;2022-10-16T05:49:19;4.60;;;4.03;;
6626;SDS011;3349;49.830;8.748;2022-10-16T05:51:46;4.65;;;4.13;;
6626;SDS011;3349;49.830;8.748;2022-10-16T05:54:13;4.13;;;3.72;;
6626;SDS011;3349;49.830;8.748;2022-10-16T05:56:41;4.00;;;3.60;;
6626;SDS011;3349;49.830;8.748;2022-10-16T05:59:08;4.72;;;4.10;;
6626;SDS011;3349;49.830;8.748;2022-10-16T06:01:35;4.15;;;3.75;;
6626;SDS011;3349;49.830;8.748;2022-10-16T06:04:02;8.57;;;5.47;;
6626;SDS011;3349;49.830;8.748;2022-10-16T06:06:29;6.07;;;4.30;;
6626;SDS011;3349;49.830;8.748;2022-10-16T06:08:56;6.18;;;4.15;;
6626;SDS011;3349;49.830;8.748;2022-10-16T06:11:25;5.32;;;3.85;;
6626;SDS011;3349;49.830;8.748;2022-10-16T06:13:55;4.63;;;3.42;;
6626;SDS011;3349;49.830;8.748;2022-10-16T06:16:23;3.58;;;3.28;;
6626;SDS011;3349;49.830;8.748;2022-10-16T06:18:51;4.03;;;3.45;;
6626;SDS011;3349;49.830;8.748;2022-10-16T06:21:19;6.68;;;4.10;;
6626;SDS011;3349;49.830;8.748;2022-10-16T06:23:48;5.03;;;4.07;;
6626;SDS011;3349;49.830;8.748;2022-10-16T06:26:15;5.88;;;3.75;;
6626;SDS011;3349;49.830;8.748;2022-10-16T06:28:43;6.15;;;4.10;;
6626;SDS011;3349;49.830;8.748;2022-10-16T06:31:11;6.60;;;4.40;;
6626;SDS011;3349;49.830;8.748;2022-10-16T06:33:39;6.80;;;4.40;;
6626;SDS011;3349;49.830;8.748;2022-10-16T06:36:07;6.95;;;3.95;;
6626;SDS011;3349;49.830;8.748;2022-10-16T06:38:36;5.30;;;4.80;;
6626;SDS011;3349;49.830;8.748;2022-10-16T06:41:03;6.60;;;4.60;;
6626;SDS011;3349;49.830;8.748;2022-10-16T06:43:31;4.78;;;4.18;;
6626;SDS011;3349;49.830;8.748;2022-10-16T06:46:00;10.32;;;4.88;;
6626;SDS011;3349;49.830;8.748;2022-10-16T06:48:29;4.75;;;4.10;;
6626;SDS011;3349;49.830;8.748;2022-10-16T06:50:57;6.85;;;4.18;;
6626;SDS011;3349;49.830;8.748;2022-10-16T06:53:25;6.60;;;4.05;;
6626;SDS011;3349;49.830;8.748;2022-10-16T06:55:53;7.50;;;4.07;;
6626;SDS011;3349;49.830;8.748;2022-10-16T06:58:20;8.90;;;3.97;;
6626;SDS011;3349;49.830;8.748;2022-10-16T07:00:47;5.25;;;4.00;;
6626;SDS011;3349;49.830;8.748;2022-10-16T07:03:15;4.65;;;4.10;;
6626;SDS011;3349;49.830;8.748;2022-10-16T07:05:43;9.15;;;3.95;;
6626;SDS011;3349;49.830;8.748;2022-10-16T07:08:10;8.20;;;3.85;;
6626;SDS011;3349;49.830;8.748;2022-10-16T07:10:37;4.63;;;3.17;;
6626;SDS011;3349;49.830;8.748;2022-10-16T07:13:03;3.95;;;2.95;;
6626;SDS011;3349;49.830;8.748;2022-10-16T07:15:32;4.28;;;3.50;;
6626;SDS011;3349;49.830;8.748;2022-10-16T07:17:59;4.95;;;3.97;;
6626;SDS011;3349;49.830;8.748;2022-10-16T07:20:25;4.30;;;3.30;;
6626;SDS011;3349;49.830;8.748;2022-10-16T07:22:53;3.13;;;2.80;;
6626;SDS011;3349;49.830;8.748;2022-10-16T07:25:20;3.67;;;2.92;;
6626;SDS011;3349;49.830;8.748;2022-10-16T07:27:47;5.38;;;2.78;;
6626;SDS011;3349;49.830;8.748;2022-10-16T07:30:14;4.47;;;3.33;;
6626;SDS011;3349;49.830;8.748;2022-10-16T07:32:41;3.72;;;2.42;;
6626;SDS011;3349;49.830;8.748;2022-10-16T07:35:08;4.82;;;2.53;;
6626;SDS011;3349;49.830;8.748;2022-10-16T07:37:34;2.70;;;1.98;;
6626;SDS011;3349;49.830;8.748;2022-10-16T07:40:03;5.03;;;2.20;;
6626;SDS011;3349;49.830;8.748;2022-10-16T07:42:31;4.45;;;2.42;;
6626;SDS011;3349;49.830;8.748;2022-10-16T07:44:57;5.57;;;2.45;;
6626;SDS011;3349;49.830;8.748;2022-10-16T07:47:24;4.30;;;2.70;;
6626;SDS011;3349;49.830;8.748;2022-10-16T07:49:51;7.30;;;2.88;;
6626;SDS011;3349;49.830;8.748;2022-10-16T07:52:18;3.10;;;2.25;;
6626;SDS011;3349;49.830;8.748;2022-10-16T07:54:44;3.88;;;2.10;;
6626;SDS011;3349;49.830;8.748;2022-10-16T07:57:12;2.53;;;2.33;;
6626;SDS011;3349;49.830;8.748;2022-10-16T07:59:44;5.90;;;3.10;;
6626;SDS011;3349;49.830;8.748;2022-10-16T08:02:10;6.00;;;2.80;;
6626;SDS011;3349;49.830;8.748;2022-10-16T08:04:37;6.32;;;3.67;;
6626;SDS011;3349;49.830;8.748;2022-10-16T08:07:04;6.38;;;3.13;;
6626;SDS011;3349;49.830;8.748;2022-10-16T08:09:32;4.03;;;2.75;;
6626;SDS011;3349;49.830;8.748;2022-10-16T08:11:59;5.75;;;2.75;;
6626;SDS011;3349;49.830;8.748;2022-10-16T08:14:27;7.03;;;3.70;;
6626;SDS011;3349;49.830;8.748;2022-10-16T08:16:53;9.15;;;3.83;;
6626;SDS011;3349;49.830;8.748;2022-10-16T08:19:20;9.23;;;5.10;;
6626;SDS011;3349;49.830;8.748;2022-10-16T08:21:47;7.80;;;3.20;;
6626;SDS011;3349;49.830;8.748;2022-10-16T08:24:13;9.55;;;2.53;;
6626;SDS011;3349;49.830;8.748;2022-10-16T08:26:40;3.05;;;2.08;;
6626;SDS011;3349;49.830;8.748;2022-10-16T08:29:07;2.97;;;2.60;;
6626;SDS011;3349;49.830;8.748;2022-10-16T08:31:35;3.80;;;2.05;;
6626;SDS011;3349;49.830;8.748;2022-10-16T08:34:02;3.22;;;2.42;;
6626;SDS011;3349;49.830;8.748;2022-10-16T08:36:29;3.63;;;2.40;;
6626;SDS011;3349;49.830;8.748;2022-10-16T08:38:56;5.57;;;2.97;;
6626;SDS011;3349;49.830;8.748;2022-10-16T08:41:27;5.78;;;2.92;;
6626;SDS011;3349;49.830;8.748;2022-10-16T08:47:08;9.90;;;3.35;;
6626;SDS011;3349;49.830;8.748;2022-10-16T08:49:45;17.67;;;4.95;;
6626;SDS011;3349;49.830;8.748;2022-10-16T08:52:21;4.78;;;2.85;;
6626;SDS011;3349;49.830;8.748;2022-10-16T08:54:49;5.07;;;3.10;;
6626;SDS011;3349;49.830;8.748;2022-10-16T08:57:20;5.05;;;2.90;;
6626;SDS011;3349;49.830;8.748;2022-10-16T08:59:48;3.53;;;3.10;;
6626;SDS011;3349;49.830;8.748;2022-10-16T09:02:20;6.05;;;3.38;;
6626;SDS011;3349;49.830;8.748;2022-10-16T09:04:58;5.25;;;3.30;;
6626;SDS011;3349;49.830;8.748;2022-10-16T09:07:50;7.90;;;3.55;;
6626;SDS011;3349;49.830;8.748;2022-10-16T09:10:32;6.80;;;3.28;;
6626;SDS011;3349;49.830;8.748;2022-10-16T09:13:11;6.47;;;3.08;;
6626;SDS011;3349;49.830;8.748;2022-10-16T09:15:46;4.13;;;3.10;;
6626;SDS011;3349;49.830;8.748;2022-10-16T09:18:21;7.22;;;2.97;;
6626;SDS011;3349;49.830;8.748;2022-10-16T09:20:56;6.40;;;3.17;;
6626;SDS011;3349;49.830;8.748;2022-10-16T09:23:30;5.05;;;3.88;;
6626;SDS011;3349;49.830;8.748;2022-10-16T09:26:00;5.13;;;3.88;;
6626;SDS011;3349;49.830;8.748;2022-10-16T09:28:28;5.60;;;3.47;;
6626;SDS011;3349;49.830;8.748;2022-10-16T09:30:55;4.18;;;3.28;;
6626;SDS011;3349;49.830;8.748;2022-10-16T09:33:24;4.10;;;3.00;;
6626;SDS011;3349;49.830;8.748;2022-10-16T09:35:55;5.90;;;2.80;;
6626;SDS011;3349;49.830;8.748;2022-10-16T09:38:25;4.47;;;3.20;;
6626;SDS011;3349;49.830;8.748;2022-10-16T09:40:53;3.88;;;2.80;;
6626;SDS011;3349;49.830;8.748;2022-10-16T09:43:22;2.80;;;2.55;;
6626;SDS011;3349;49.830;8.748;2022-10-16T09:45:53;3.40;;;2.35;;
6626;SDS011;3349;49.830;8.748;2022-10-16T09:48:21;4.75;;;3.00;;
6626;SDS011;3349;49.830;8.748;2022-10-16T09:50:56;4.93;;;2.90;;
6626;SDS011;3349;49.830;8.748;2022-10-16T09:53:24;4.20;;;2.70;;
6626;SDS011;3349;49.830;8.748;2022-10-16T09:56:03;5.28;;;2.10;;
6626;SDS011;3349;49.830;8.748;2022-10-16T09:58:31;3.35;;;1.95;;
6626;SDS011;3349;49.830;8.748;2022-10-16T10:00:59;2.97;;;2.35;;
6626;SDS011;3349;49.830;8.748;2022-10-16T10:03:36;3.20;;;2.90;;
6626;SDS011;3349;49.830;8.748;2022-10-16T10:06:14;4.47;;;3.22;;
6626;SDS011;3349;49.830;8.748;2022-10-16T10:08:54;4.45;;;2.72;;
6626;SDS011;3349;49.830;8.748;2022-10-16T10:14:14;4.20;;;2.20;;
6626;SDS011;3349;49.830;8.748;2022-10-16T10:16:44;2.90;;;2.53;;
6626;SDS011;3349;49.830;8.748;2022-10-16T10:19:15;4.57;;;2.58;;
6626;SDS011;3349;49.830;8.748;2022-10-16T10:21:45;2.20;;;1.83;;
6626;SDS011;3349;49.830;8.748;2022-10-16T10:24:12;5.57;;;2.30;;
6626;SDS011;3349;49.830;8.748;2022-10-16T10:26:43;3.42;;;1.70;;
6626;SDS011;3349;49.830;8.748;2022-10-16T10:29:17;2.78;;;1.70;;
6626;SDS011;3349;49.830;8.748;2022-10-16T10:31:52;2.58;;;2.10;;
6626;SDS011;3349;49.830;8.748;2022-10-16T10:34:30;2.90;;;2.17;;
6626;SDS011;3349;49.830;8.748;2022-10-16T10:37:23;4.35;;;2.55;;
6626;SDS011;3349;49.830;8.748;2022-10-16T10:40:04;3.92;;;3.00;;
6626;SDS011;3349;49.830;8.748;2022-10-16T10:42:40;5.03;;;1.92;;
6626;SDS011;3349;49.830;8.748;2022-10-16T10:45:16;2.85;;;2.28;;
6626;SDS011;3349;49.830;8.748;2022-10-16T10:47:52;2.80;;;2.13;;
6626;SDS011;3349;49.830;8.748;2022-10-16T10:50:30;4.80;;;2.45;;
6626;SDS011;3349;49.830;8.748;2022-10-16T10:53:06;2.38;;;2.15;;
6626;SDS011;3349;49.830;8.748;2022-10-16T10:55:43;4.63;;;1.88;;
6626;SDS011;3349;49.830;8.748;2022-10-16T10:58:19;4.13;;;2.22;;
6626;SDS011;3349;49.830;8.748;2022-10-16T11:00:56;2.25;;;2.05;;
6626;SDS011;3349;49.830;8.748;2022-10-16T11:03:41;3.58;;;2.33;;
6626;SDS011;3349;49.830;8.748;2022-10-16T11:06:28;2.35;;;2.15;;
6626;SDS011;3349;49.830;8.748;2022-10-16T11:09:00;2.50;;;2.30;;
6626;SDS011;3349;49.830;8.748;2022-10-16T11:11:37;3.10;;;2.25;;
6626;SDS011;3349;49.830;8.748;2022-10-16T11:14:11;3.47;;;2.63;;
6626;SDS011;3349;49.830;8.748;2022-10-16T11:16:45;3.47;;;2.40;;
6626;SDS011;3349;49.830;8.748;2022-10-16T11:19:19;2.53;;;1.92;;
6626;SDS011;3349;49.830;8.748;2022-10-16T11:21:55;2.63;;;2.15;;
6626;SDS011;3349;49.830;8.748;2022-10-16T11:24:30;4.78;;;2.30;;
6626;SDS011;3349;49.830;8.748;2022-10-16T11:27:07;2.88;;;2.13;;
6626;SDS011;3349;49.830;8.748;2022-10-16T11:29:40;2.80;;;2.50;;
6626;SDS011;3349;49.830;8.748;2022-10-16T11:32:15;3.85;;;2.40;;
6626;SDS011;3349;49.830;8.748;2022-10-16T11:34:49;5.05;;;2.38;;
6626;SDS011;3349;49.830;8.748;2022-10-16T11:37:18;2.05;;;1.88;;
6626;SDS011;3349;49.830;8.748;2022-10-16T11:39:50;2.40;;;2.20;;
6626;SDS011;3349;49.830;8.748;2022-10-16T11:42:22;3.83;;;1.90;;
6626;SDS011;3349;49.830;8.748;2022-10-16T11:44:57;2.60;;;2.00;;
6626;SDS011;3349;49.830;8.748;2022-10-16T11:47:31;3.83;;;2.28;;
6626;SDS011;3349;49.830;8.748;2022-10-16T11:50:01;4.38;;;2.10;;
6626;SDS011;3349;49.830;8.748;2022-10-16T11:52:33;2.75;;;2.28;;
6626;SDS011;3349;49.830;8.748;2022-10-16T11:55:13;3.67;;;2.40;;
6626;SDS011;3349;49.830;8.748;2022-10-16T11:57:43;2.28;;;2.08;;
6626;SDS011;3349;49.830;8.748;2022-10-16T12:00:18;3.45;;;2.00;;
6626;SDS011;3349;49.830;8.748;2022-10-16T12:02:54;2.72;;;2.10;;
6626;SDS011;3349;49.830;8.748;2022-10-16T12:05:28;3.80;;;2.40;;
6626;SDS011;3349;49.830;8.748;2022-10-16T12:08:02;2.83;;;2.40;;
6626;SDS011;3349;49.830;8.748;2022-10-16T12:10:35;4.28;;;2.30;;
6626;SDS011;3349;49.830;8.748;2022-10-16T12:13:03;6.10;;;2.17;;
6626;SDS011;3349;49.830;8.748;2022-10-16T12:15:31;4.43;;;2.20;;
6626;SDS011;3349;49.830;8.748;2022-10-16T12:17:59;2.33;;;2.13;;
6626;SDS011;3349;49.830;8.748;2022-10-16T12:20:27;3.25;;;2.08;;
6626;SDS011;3349;49.830;8.748;2022-10-16T12:22:57;2.70;;;2.33;;
6626;SDS011;3349;49.830;8.748;2022-10-16T12:25:26;4.03;;;2.13;;
6626;SDS011;3349;49.830;8.748;2022-10-16T12:27:58;3.00;;;2.30;;
6626;SDS011;3349;49.830;8.748;2022-10-16T12:30:28;2.35;;;2.15;;
6626;SDS011;3349;49.830;8.748;2022-10-16T12:32:57;2.67;;;2.03;;
6626;SDS011;3349;49.830;8.748;2022-10-16T12:35:27;4.63;;;2.65;;
6626;SDS011;3349;49.830;8.748;2022-10-16T12:38:04;2.42;;;2.15;;
6626;SDS011;3349;49.830;8.748;2022-10-16T12:40:33;3.38;;;2.38;;
6626;SDS011;3349;49.830;8.748;2022-10-16T12:43:22;3.33;;;2.20;;
6626;SDS011;3349;49.830;8.748;2022-10-16T12:45:58;4.25;;;2.90;;
6626;SDS011;3349;49.830;8.748;2022-10-16T12:48:30;3.28;;;2.45;;
6626;SDS011;3349;49.830;8.748;2022-10-16T12:50:57;5.20;;;2.50;;
6626;SDS011;3349;49.830;8.748;2022-10-16T12:53:35;3.67;;;2.60;;
6626;SDS011;3349;49.830;8.748;2022-10-16T12:56:03;3.63;;;2.65;;
6626;SDS011;3349;49.830;8.748;2022-10-16T12:58:49;2.97;;;2.50;;
6626;SDS011;3349;49.830;8.748;2022-10-16T13:01:39;5.18;;;2.75;;
6626;SDS011;3349;49.830;8.748;2022-10-16T13:04:35;6.13;;;3.05;;
6626;SDS011;3349;49.830;8.748;2022-10-16T13:07:16;2.88;;;2.28;;
6626;SDS011;3349;49.830;8.748;2022-10-16T13:10:00;5.88;;;2.38;;
6626;SDS011;3349;49.830;8.748;2022-10-16T13:12:51;3.05;;;2.75;;
6626;SDS011;3349;49.830;8.748;2022-10-16T13:15:45;3.72;;;2.72;;
6626;SDS011;3349;49.830;8.748;2022-10-16T13:18:25;2.95;;;2.65;;
6626;SDS011;3349;49.830;8.748;2022-10-16T13:21:00;4.68;;;2.70;;
6626;SDS011;3349;49.830;8.748;2022-10-16T13:23:38;3.85;;;2.50;;
6626;SDS011;3349;49.830;8.748;2022-10-16T13:26:16;3.45;;;2.92;;
6626;SDS011;3349;49.830;8.748;2022-10-16T13:28:49;4.43;;;2.80;;
6626;SDS011;3349;49.830;8.748;2022-10-16T13:31:19;3.38;;;2.65;;
6626;SDS011;3349;49.830;8.748;2022-10-16T13:33:49;4.68;;;3.45;;
6626;SDS011;3349;49.830;8.748;2022-10-16T13:36:20;4.43;;;3.17;;
6626;SDS011;3349;49.830;8.748;2022-10-16T13:38:49;4.68;;;3.53;;
6626;SDS011;3349;49.830;8.748;2022-10-16T13:41:30;7.10;;;4.78;;
6626;SDS011;3349;49.830;8.748;2022-10-16T13:43:57;6.78;;;4.28;;
6626;SDS011;3349;49.830;8.748;2022-10-16T13:46:25;4.88;;;2.90;;
6626;SDS011;3349;49.830;8.748;2022-10-16T13:48:58;3.47;;;2.92;;
6626;SDS011;3349;49.830;8.748;2022-10-16T13:51:26;3.75;;;3.13;;
6626;SDS011;3349;49.830;8.748;2022-10-16T13:53:55;3.78;;;2.83;;
6626;SDS011;3349;49.830;8.748;2022-10-16T13:56:24;5.28;;;2.97;;
6626;SDS011;3349;49.830;8.748;2022-10-16T13:58:59;4.50;;;3.13;;
6626;SDS011;3349;49.830;8.748;2022-10-16T14:01:28;3.00;;;2.70;;
6626;SDS011;3349;49.830;8.748;2022-10-16T14:04:00;3.42;;;2.90;;
6626;SDS011;3349;49.830;8.748;2022-10-16T14:06:33;6.20;;;4.18;;
6626;SDS011;3349;49.830;8.748;2022-10-16T14:09:02;3.70;;;3.40;;
6626;SDS011;3349;49.830;8.748;2022-10-16T14:11:33;3.47;;;3.17;;
6626;SDS011;3349;49.830;8.748;2022-10-16T14:14:04;4.45;;;3.30;;
6626;SDS011;3349;49.830;8.748;2022-10-16T14:16:33;4.97;;;3.50;;
6626;SDS011;3349;49.830;8.748;2022-10-16T14:19:00;7.00;;;3.30;;
6626;SDS011;3349;49.830;8.748;2022-10-16T14:21:31;3.53;;;2.90;;
6626;SDS011;3349;49.830;8.748;2022-10-16T14:23:58;4.22;;;3.15;;
6626;SDS011;3349;49.830;8.748;2022-10-16T14:26:26;3.63;;;3.10;;
6626;SDS011;3349;49.830;8.748;2022-10-16T14:29:10;6.97;;;3.20;;
6626;SDS011;3349;49.830;8.748;2022-10-16T14:31:40;5.78;;;3.20;;
6626;SDS011;3349;49.830;8.748;2022-10-16T14:34:24;5.38;;;3.17;;
6626;SDS011;3349;49.830;8.748;2022-10-16T14:36:52;6.15;;;3.30;;
6626;SDS011;3349;49.830;8.748;2022-10-16T14:39:20;4.47;;;3.10;;
6626;SDS011;3349;49.830;8.748;2022-10-16T14:41:48;4.05;;;3.20;;
6626;SDS011;3349;49.830;8.748;2022-10-16T14:44:17;3.20;;;2.90;;
6626;SDS011;3349;49.830;8.748;2022-10-16T14:46:46;3.50;;;3.00;;
6626;SDS011;3349;49.830;8.748;2022-10-16T14:49:15;5.20;;;3.33;;
6626;SDS011;3349;49.830;8.748;2022-10-16T14:51:43;4.55;;;3.47;;
6626;SDS011;3349;49.830;8.748;2022-10-16T14:54:10;5.10;;;3.00;;
6626;SDS011;3349;49.830;8.748;2022-10-16T14:56:42;3.75;;;2.78;;
6626;SDS011;3349;49.830;8.748;2022-10-16T14:59:13;3.97;;;2.80;;
6626;SDS011;3349;49.830;8.748;2022-10-16T15:01:42;3.38;;;2.88;;
6626;SDS011;3349;49.830;8.748;2022-10-16T15:04:11;5.03;;;3.00;;
6626;SDS011;3349;49.830;8.748;2022-10-16T15:06:38;4.90;;;4.32;;
6626;SDS011;3349;49.830;8.748;2022-10-16T15:09:06;9.93;;;7.95;;
6626;SDS011;3349;49.830;8.748;2022-10-16T15:11:32;13.85;;;9.93;;
6626;SDS011;3349;49.830;8.748;2022-10-16T15:13:59;10.00;;;7.55;;
6626;SDS011;3349;49.830;8.748;2022-10-16T15:16:28;10.13;;;8.55;;
6626;SDS011;3349;49.830;8.748;2022-10-16T15:18:55;10.63;;;8.63;;
6626;SDS011;3349;49.830;8.748;2022-10-16T15:21:24;8.93;;;6.68;;
6626;SDS011;3349;49.830;8.748;2022-10-16T15:23:52;8.07;;;5.43;;
6626;SDS011;3349;49.830;8.748;2022-10-16T15:26:18;9.35;;;4.55;;
6626;SDS011;3349;49.830;8.748;2022-10-16T15:28:45;5.90;;;5.22;;
6626;SDS011;3349;49.830;8.748;2022-10-16T15:31:12;15.75;;;13.80;;
6626;SDS011;3349;49.830;8.748;2022-10-16T15:33:39;9.75;;;8.05;;
6626;SDS011;3349;49.830;8.748;2022-10-16T15:36:05;9.63;;;7.25;;
6626;SDS011;3349;49.830;8.748;2022-10-16T15:38:34;8.63;;;6.60;;